sensor_id;sensor_type;location;lat;lon;timestamp;pressure;altitude;pressure_sealevel;temperature;humidity
5296;BME280;2670;42.720;23.336;2023-05-20T00:00:40;-22772.97;;;11.38;100.00
5296;BME280;2670;42.720;23.336;2023-05-20T00:03:07;-22771.50;;;11.33;100.00
5296;BME280;2670;42.720;23.336;2023-05-20T00:05:33;-22769.88;;;11.27;100.00
5296;BME280;2670;42.720;23.336;2023-05-20T00:08:00;-22770.31;;;11.29;100.00
5296;BME280;2670;42.720;23.336;2023-05-20T00:10:31;-22767.06;;;11.17;100.00
5296;BME280;2670;42.720;23.336;2023-05-20T00:12:59;-22766.78;;;11.16;100.00
5296;BME280;2670;42.720;23.336;2023-05-20T00:15:26;-22765.00;;;11.10;100.00
5296;BME280;2670;42.720;23.336;2023-05-20T00:17:53;-22762.03;;;11.00;100.00
5296;BME280;2670;42.720;23.336;2023-05-20T00:20:20;-22763.06;;;11.04;100.00
5296;BME280;2670;42.720;23.336;2023-05-20T00:22:46;-22761.88;;;11.00;100.00
5296;BME280;2670;42.720;23.336;2023-05-20T00:25:13;-22761.44;;;10.98;100.00
5296;BME280;2670;42.720;23.336;2023-05-20T00:27:40;-22760.84;;;10.96;100.00
5296;BME280;2670;42.720;23.336;2023-05-20T00:30:09;-22759.66;;;10.92;100.00
5296;BME280;2670;42.720;23.336;2023-05-20T00:32:36;-22762.75;;;11.03;100.00
5296;BME280;2670;42.720;23.336;2023-05-20T00:35:03;-22762.19;;;11.01;100.00
5296;BME280;2670;42.720;23.336;2023-05-20T00:37:30;-22759.34;;;10.91;100.00
5296;BME280;2670;42.720;23.336;2023-05-20T00:39:57;-22759.22;;;10.90;100.00
5296;BME280;2670;42.720;23.336;2023-05-20T00:42:25;-22756.09;;;10.80;100.00
5296;BME280;2670;42.720;23.336;2023-05-20T00:44:53;-22753.13;;;10.69;100.00
5296;BME280;2670;42.720;23.336;2023-05-20T00:47:24;-22757.00;;;10.83;100.00
5296;BME280;2670;42.720;23.336;2023-05-20T00:49:52;-22756.09;;;10.80;100.00
5296;BME280;2670;42.720;23.336;2023-05-20T00:52:19;-22755.81;;;10.79;100.00
5296;BME280;2670;42.720;23.336;2023-05-20T00:54:46;-22752.69;;;10.68;100.00
5296;BME280;2670;42.720;23.336;2023-05-20T00:57:13;-22751.06;;;10.62;100.00
5296;BME280;2670;42.720;23.336;2023-05-20T00:59:40;-22752.09;;;10.66;100.00
5296;BME280;2670;42.720;23.336;2023-05-20T01:02:07;-22753.75;;;10.71;100.00
5296;BME280;2670;42.720;23.336;2023-05-20T01:04:35;-22751.97;;;10.65;100.00
5296;BME280;2670;42.720;23.336;2023-05-20T01:07:04;-22750.94;;;10.62;100.00
5296;BME280;2670;42.720;23.336;2023-05-20T01:09:31;-22750.31;;;10.60;100.00
5296;BME280;2670;42.720;23.336;2023-05-20T01:12:02;-22749.28;;;10.56;100.00
5296;BME280;2670;42.720;23.336;2023-05-20T01:14:35;-22749.59;;;10.57;100.00
5296;BME280;2670;42.720;23.336;2023-05-20T01:17:04;-22750.31;;;10.60;100.00
5296;BME280;2670;42.720;23.336;2023-05-20T01:19:39;-22752.25;;;10.66;100.00
5296;BME280;2670;42.720;23.336;2023-05-20T01:22:07;-22750.94;;;10.62;100.00
5296;BME280;2670;42.720;23.336;2023-05-20T01:24:39;-22747.66;;;10.51;100.00
5296;BME280;2670;42.720;23.336;2023-05-20T01:27:05;-22747.06;;;10.48;100.00
5296;BME280;2670;42.720;23.336;2023-05-20T01:29:34;-22745.59;;;10.43;100.00
5296;BME280;2670;42.720;23.336;2023-05-20T01:32:04;-22744.41;;;10.39;100.00
5296;BME280;2670;42.720;23.336;2023-05-20T01:34:32;-22746.91;;;10.48;100.00
5296;BME280;2670;42.720;23.336;2023-05-20T01:37:02;-22746.19;;;10.45;100.00
5296;BME280;2670;42.720;23.336;2023-05-20T01:39:30;-22746.47;;;10.46;100.00
5296;BME280;2670;42.720;23.336;2023-05-20T01:42:01;-22746.03;;;10.45;100.00
5296;BME280;2670;42.720;23.336;2023-05-20T01:44:29;-22744.84;;;10.41;100.00
5296;BME280;2670;42.720;23.336;2023-05-20T01:46:56;-22745.44;;;10.43;100.00
5296;BME280;2670;42.720;23.336;2023-05-20T01:49:23;-22741.13;;;10.28;100.00
5296;BME280;2670;42.720;23.336;2023-05-20T01:51:49;-22741.88;;;10.31;100.00
5296;BME280;2670;42.720;23.336;2023-05-20T01:54:16;-22744.25;;;10.39;100.00
5296;BME280;2670;42.720;23.336;2023-05-20T01:56:43;-22743.66;;;10.37;100.00
5296;BME280;2670;42.720;23.336;2023-05-20T01:59:11;-22741.75;;;10.30;100.00
5296;BME280;2670;42.720;23.336;2023-05-20T02:01:38;-22741.44;;;10.29;100.00
5296;BME280;2670;42.720;23.336;2023-05-20T02:04:05;-22738.47;;;10.19;100.00
5296;BME280;2670;42.720;23.336;2023-05-20T02:06:31;-22738.78;;;10.20;100.00
5296;BME280;2670;42.720;23.336;2023-05-20T02:08:58;-22738.91;;;10.20;100.00
5296;BME280;2670;42.720;23.336;2023-05-20T02:11:25;-22741.59;;;10.30;100.00
5296;BME280;2670;42.720;23.336;2023-05-20T02:13:51;-22737.44;;;10.15;100.00
5296;BME280;2670;42.720;23.336;2023-05-20T02:16:20;-22736.53;;;10.12;100.00
5296;BME280;2670;42.720;23.336;2023-05-20T02:18:46;-22734.75;;;10.06;100.00
5296;BME280;2670;42.720;23.336;2023-05-20T02:21:15;-22734.19;;;10.04;100.00
5296;BME280;2670;42.720;23.336;2023-05-20T02:23:42;-22735.50;;;10.09;100.00
5296;BME280;2670;42.720;23.336;2023-05-20T02:26:09;-22735.06;;;10.07;100.00
5296;BME280;2670;42.720;23.336;2023-05-20T02:28:36;-22733.13;;;10.01;100.00
5296;BME280;2670;42.720;23.336;2023-05-20T02:31:04;-22727.50;;;9.81;100.00
5296;BME280;2670;42.720;23.336;2023-05-20T02:33:33;-22724.09;;;9.69;100.00
5296;BME280;2670;42.720;23.336;2023-05-20T02:35:59;-22725.56;;;9.75;100.00
5296;BME280;2670;42.720;23.336;2023-05-20T02:38:26;-22727.66;;;9.82;100.00
5296;BME280;2670;42.720;23.336;2023-05-20T02:40:54;-22726.75;;;9.79;100.00
5296;BME280;2670;42.720;23.336;2023-05-20T02:43:23;-22725.44;;;9.74;100.00
5296;BME280;2670;42.720;23.336;2023-05-20T02:45:50;-22724.69;;;9.71;100.00
5296;BME280;2670;42.720;23.336;2023-05-20T02:48:16;-22724.69;;;9.71;100.00
5296;BME280;2670;42.720;23.336;2023-05-20T02:50:45;-22724.53;;;9.71;100.00
5296;BME280;2670;42.720;23.336;2023-05-20T02:53:11;-22723.50;;;9.67;100.00
5296;BME280;2670;42.720;23.336;2023-05-20T02:55:39;-22723.50;;;9.67;100.00
5296;BME280;2670;42.720;23.336;2023-05-20T02:58:05;-22725.88;;;9.76;100.00
5296;BME280;2670;42.720;23.336;2023-05-20T03:00:32;-22722.03;;;9.62;100.00
5296;BME280;2670;42.720;23.336;2023-05-20T03:03:04;-22718.59;;;9.51;100.00
5296;BME280;2670;42.720;23.336;2023-05-20T03:05:32;-22723.66;;;9.68;100.00
5296;BME280;2670;42.720;23.336;2023-05-20T03:08:03;-22721.41;;;9.60;100.00
5296;BME280;2670;42.720;23.336;2023-05-20T03:10:29;-22721.72;;;9.61;100.00
5296;BME280;2670;42.720;23.336;2023-05-20T03:12:56;-22721.28;;;9.60;100.00
5296;BME280;2670;42.720;23.336;2023-05-20T03:15:23;-22721.41;;;9.60;100.00
5296;BME280;2670;42.720;23.336;2023-05-20T03:17:50;-22722.47;;;9.64;100.00
5296;BME280;2670;42.720;23.336;2023-05-20T03:20:17;-22722.59;;;9.64;100.00
5296;BME280;2670;42.720;23.336;2023-05-20T03:22:44;-22722.16;;;9.63;100.00
5296;BME280;2670;42.720;23.336;2023-05-20T03:25:12;-22721.28;;;9.60;100.00
5296;BME280;2670;42.720;23.336;2023-05-20T03:27:39;-22720.53;;;9.57;100.00
5296;BME280;2670;42.720;23.336;2023-05-20T03:30:08;-22723.06;;;9.66;100.00
5296;BME280;2670;42.720;23.336;2023-05-20T03:32:34;-22725.56;;;9.75;100.00
5296;BME280;2670;42.720;23.336;2023-05-20T03:35:01;-22727.22;;;9.80;100.00
5296;BME280;2670;42.720;23.336;2023-05-20T03:37:28;-22724.69;;;9.71;100.00
5296;BME280;2670;42.720;23.336;2023-05-20T03:39:54;-22720.25;;;9.56;100.00
5296;BME280;2670;42.720;23.336;2023-05-20T03:42:23;-22719.50;;;9.54;100.00
5296;BME280;2670;42.720;23.336;2023-05-20T03:44:49;-22721.72;;;9.61;100.00
5296;BME280;2670;42.720;23.336;2023-05-20T03:47:16;-22722.47;;;9.64;100.00
5296;BME280;2670;42.720;23.336;2023-05-20T03:49:43;-22725.13;;;9.73;100.00
5296;BME280;2670;42.720;23.336;2023-05-20T03:52:09;-22728.97;;;9.86;100.00
5296;BME280;2670;42.720;23.336;2023-05-20T03:54:36;-22721.72;;;9.61;100.00
5296;BME280;2670;42.720;23.336;2023-05-20T03:57:03;-22723.34;;;9.67;100.00
5296;BME280;2670;42.720;23.336;2023-05-20T03:59:31;-22722.31;;;9.63;100.00
5296;BME280;2670;42.720;23.336;2023-05-20T04:01:57;-22723.94;;;9.69;100.00
5296;BME280;2670;42.720;23.336;2023-05-20T04:04:24;-22724.25;;;9.70;100.00
5296;BME280;2670;42.720;23.336;2023-05-20T04:06:51;-22726.63;;;9.78;100.00
5296;BME280;2670;42.720;23.336;2023-05-20T04:09:18;-22725.56;;;9.75;100.00
5296;BME280;2670;42.720;23.336;2023-05-20T04:11:48;-22728.25;;;9.84;100.00
5296;BME280;2670;42.720;23.336;2023-05-20T04:14:14;-22728.69;;;9.85;100.00
5296;BME280;2670;42.720;23.336;2023-05-20T04:16:42;-22729.28;;;9.87;100.00
5296;BME280;2670;42.720;23.336;2023-05-20T04:19:10;-22729.56;;;9.88;100.00
5296;BME280;2670;42.720;23.336;2023-05-20T04:21:37;-22733.88;;;10.03;100.00
5296;BME280;2670;42.720;23.336;2023-05-20T04:24:04;-22733.13;;;10.01;100.00
5296;BME280;2670;42.720;23.336;2023-05-20T04:26:31;-22731.94;;;9.96;100.00
5296;BME280;2670;42.720;23.336;2023-05-20T04:28:58;-22735.81;;;10.10;100.00
5296;BME280;2670;42.720;23.336;2023-05-20T04:31:25;-22734.47;;;10.05;100.00
5296;BME280;2670;42.720;23.336;2023-05-20T04:33:54;-22735.38;;;10.08;100.00
5296;BME280;2670;42.720;23.336;2023-05-20T04:36:21;-22730.75;;;9.92;100.00
5296;BME280;2670;42.720;23.336;2023-05-20T04:38:52;-22732.53;;;9.98;100.00
5296;BME280;2670;42.720;23.336;2023-05-20T04:41:19;-22732.53;;;9.98;100.00
5296;BME280;2670;42.720;23.336;2023-05-20T04:43:46;-22737.00;;;10.14;100.00
5296;BME280;2670;42.720;23.336;2023-05-20T04:46:14;-22736.09;;;10.11;100.00
5296;BME280;2670;42.720;23.336;2023-05-20T04:48:41;-22734.91;;;10.07;100.00
5296;BME280;2670;42.720;23.336;2023-05-20T04:51:09;-22733.72;;;10.03;100.00
5296;BME280;2670;42.720;23.336;2023-05-20T04:53:36;-22734.63;;;10.06;100.00
5296;BME280;2670;42.720;23.336;2023-05-20T04:56:03;-22734.63;;;10.06;100.00
5296;BME280;2670;42.720;23.336;2023-05-20T04:58:30;-22735.81;;;10.10;100.00
5296;BME280;2670;42.720;23.336;2023-05-20T05:00:57;-22739.34;;;10.22;100.00
5296;BME280;2670;42.720;23.336;2023-05-20T05:03:24;-22744.41;;;10.39;100.00
5296;BME280;2670;42.720;23.336;2023-05-20T05:05:54;-22746.03;;;10.45;100.00
5296;BME280;2670;42.720;23.336;2023-05-20T05:08:22;-22744.69;;;10.40;100.00
5296;BME280;2670;42.720;23.336;2023-05-20T05:10:49;-22748.25;;;10.53;100.00
5296;BME280;2670;42.720;23.336;2023-05-20T05:13:16;-22749.88;;;10.58;100.00
5296;BME280;2670;42.720;23.336;2023-05-20T05:15:43;-22749.59;;;10.57;100.00
5296;BME280;2670;42.720;23.336;2023-05-20T05:18:09;-22749.88;;;10.58;100.00
5296;BME280;2670;42.720;23.336;2023-05-20T05:20:36;-22750.63;;;10.61;100.00
5296;BME280;2670;42.720;23.336;2023-05-20T05:23:03;-22751.38;;;10.63;100.00
5296;BME280;2670;42.720;23.336;2023-05-20T05:25:31;-22754.03;;;10.72;100.00
5296;BME280;2670;42.720;23.336;2023-05-20T05:27:58;-22757.72;;;10.85;100.00
5296;BME280;2670;42.720;23.336;2023-05-20T05:30:25;-22766.63;;;11.16;100.00
5296;BME280;2670;42.720;23.336;2023-05-20T05:32:52;-22766.78;;;11.16;100.00
5296;BME280;2670;42.720;23.336;2023-05-20T05:35:19;-22770.63;;;11.30;100.00
5296;BME280;2670;42.720;23.336;2023-05-20T05:37:45;-22771.81;;;11.34;100.00
5296;BME280;2670;42.720;23.336;2023-05-20T05:40:12;-22772.38;;;11.36;100.00
5296;BME280;2670;42.720;23.336;2023-05-20T05:42:40;-22771.94;;;11.34;100.00
5296;BME280;2670;42.720;23.336;2023-05-20T05:45:09;-22777.56;;;11.54;100.00
5296;BME280;2670;42.720;23.336;2023-05-20T05:47:36;-22779.94;;;11.62;100.00
5296;BME280;2670;42.720;23.336;2023-05-20T05:50:03;-22784.66;;;11.78;100.00
5296;BME280;2670;42.720;23.336;2023-05-20T05:52:30;-22786.75;;;11.85;100.00
5296;BME280;2670;42.720;23.336;2023-05-20T05:54:57;-22790.44;;;11.98;100.00
5296;BME280;2670;42.720;23.336;2023-05-20T05:57:23;-22792.50;;;12.05;100.00
5296;BME280;2670;42.720;23.336;2023-05-20T05:59:51;-22794.00;;;12.10;100.00
5296;BME280;2670;42.720;23.336;2023-05-20T06:02:18;-22794.72;;;12.13;100.00
5296;BME280;2670;42.720;23.336;2023-05-20T06:04:45;-22795.03;;;12.14;100.00
5296;BME280;2670;42.720;23.336;2023-05-20T06:07:12;-22794.59;;;12.12;100.00
5296;BME280;2670;42.720;23.336;2023-05-20T06:09:38;-22795.91;;;12.17;100.00
5296;BME280;2670;42.720;23.336;2023-05-20T06:12:06;-22804.94;;;12.48;100.00
5296;BME280;2670;42.720;23.336;2023-05-20T06:14:32;-22807.00;;;12.55;100.00
5296;BME280;2670;42.720;23.336;2023-05-20T06:17:01;-22808.34;;;12.60;100.00
5296;BME280;2670;42.720;23.336;2023-05-20T06:19:28;-22813.78;;;12.79;100.00
5296;BME280;2670;42.720;23.336;2023-05-20T06:21:56;-22817.34;;;12.91;100.00
5296;BME280;2670;42.720;23.336;2023-05-20T06:24:23;-22822.50;;;13.09;100.00
5296;BME280;2670;42.720;23.336;2023-05-20T06:26:50;-22826.34;;;13.22;100.00
5296;BME280;2670;42.720;23.336;2023-05-20T06:29:17;-22830.34;;;13.36;100.00
5296;BME280;2670;42.720;23.336;2023-05-20T06:31:43;-22830.78;;;13.37;100.00
5296;BME280;2670;42.720;23.336;2023-05-20T06:34:11;-22837.88;;;13.62;100.00
5296;BME280;2670;42.720;23.336;2023-05-20T06:36:38;-22841.72;;;13.75;100.00
5296;BME280;2670;42.720;23.336;2023-05-20T06:39:05;-22841.41;;;13.74;100.00
5296;BME280;2670;42.720;23.336;2023-05-20T06:41:37;-22846.00;;;13.90;100.00
5296;BME280;2670;42.720;23.336;2023-05-20T06:44:04;-22852.03;;;14.11;100.00
5296;BME280;2670;42.720;23.336;2023-05-20T06:46:31;-22855.56;;;14.23;100.00
5296;BME280;2670;42.720;23.336;2023-05-20T06:48:57;-22854.53;;;14.19;100.00
5296;BME280;2670;42.720;23.336;2023-05-20T06:51:26;-22855.88;;;14.24;100.00
5296;BME280;2670;42.720;23.336;2023-05-20T06:53:53;-22853.94;;;14.17;100.00
5296;BME280;2670;42.720;23.336;2023-05-20T06:56:19;-22856.91;;;14.28;100.00
5296;BME280;2670;42.720;23.336;2023-05-20T06:58:46;-22863.41;;;14.50;100.00
5296;BME280;2670;42.720;23.336;2023-05-20T07:01:13;-22865.59;;;14.58;100.00
5296;BME280;2670;42.720;23.336;2023-05-20T07:03:40;-22866.06;;;14.59;100.00
5296;BME280;2670;42.720;23.336;2023-05-20T07:06:07;-22866.34;;;14.60;100.00
5296;BME280;2670;42.720;23.336;2023-05-20T07:08:35;-22872.81;;;14.83;100.00
5296;BME280;2670;42.720;23.336;2023-05-20T07:11:01;-22872.38;;;14.81;100.00
5296;BME280;2670;42.720;23.336;2023-05-20T07:13:29;-22872.53;;;14.82;100.00
5296;BME280;2670;42.720;23.336;2023-05-20T07:15:56;-22874.75;;;14.89;100.00
5296;BME280;2670;42.720;23.336;2023-05-20T07:18:23;-22876.81;;;14.97;100.00
5296;BME280;2670;42.720;23.336;2023-05-20T07:20:51;-22881.81;;;15.14;100.00
5296;BME280;2670;42.720;23.336;2023-05-20T07:23:18;-22882.84;;;15.17;100.00
5296;BME280;2670;42.720;23.336;2023-05-20T07:25:46;-22891.09;;;15.46;100.00
5296;BME280;2670;42.720;23.336;2023-05-20T07:28:14;-22895.06;;;15.60;100.00
5296;BME280;2670;42.720;23.336;2023-05-20T07:30:41;-22892.56;;;15.51;100.00
5296;BME280;2670;42.720;23.336;2023-05-20T07:33:10;-22894.19;;;15.57;100.00
5296;BME280;2670;42.720;23.336;2023-05-20T07:35:37;-22895.94;;;15.63;100.00
5296;BME280;2670;42.720;23.336;2023-05-20T07:38:04;-22900.38;;;15.78;97.04
5296;BME280;2670;42.720;23.336;2023-05-20T07:40:31;-22909.78;;;16.11;92.32
5296;BME280;2670;42.720;23.336;2023-05-20T07:42:59;-22910.09;;;16.12;94.04
5296;BME280;2670;42.720;23.336;2023-05-20T07:45:26;-22913.63;;;16.24;92.63
5296;BME280;2670;42.720;23.336;2023-05-20T07:47:52;-22915.97;;;16.32;94.96
5296;BME280;2670;42.720;23.336;2023-05-20T07:50:19;-22919.50;;;16.44;91.44
5296;BME280;2670;42.720;23.336;2023-05-20T07:52:46;-22919.94;;;16.46;92.69
5296;BME280;2670;42.720;23.336;2023-05-20T07:55:13;-22922.88;;;16.56;88.88
5296;BME280;2670;42.720;23.336;2023-05-20T07:57:39;-22923.47;;;16.58;90.87
5296;BME280;2670;42.720;23.336;2023-05-20T08:00:09;-22923.91;;;16.60;92.95
5296;BME280;2670;42.720;23.336;2023-05-20T08:02:37;-22929.06;;;16.78;95.58
5296;BME280;2670;42.720;23.336;2023-05-20T08:05:05;-22933.03;;;16.91;96.35
5296;BME280;2670;42.720;23.336;2023-05-20T08:07:33;-22935.53;;;17.00;94.76
5296;BME280;2670;42.720;23.336;2023-05-20T08:09:59;-22936.84;;;17.05;94.75
5296;BME280;2670;42.720;23.336;2023-05-20T08:12:26;-22943.31;;;17.27;90.57
5296;BME280;2670;42.720;23.336;2023-05-20T08:14:55;-22945.38;;;17.34;90.96
5296;BME280;2670;42.720;23.336;2023-05-20T08:17:24;-22947.72;;;17.42;91.08
5296;BME280;2670;42.720;23.336;2023-05-20T08:19:50;-22949.19;;;17.48;93.88
5296;BME280;2670;42.720;23.336;2023-05-20T08:22:17;-22951.84;;;17.57;91.03
5296;BME280;2670;42.720;23.336;2023-05-20T08:24:44;-22948.16;;;17.44;87.05
5296;BME280;2670;42.720;23.336;2023-05-20T08:27:11;-22945.38;;;17.34;92.69
5296;BME280;2670;42.720;23.336;2023-05-20T08:29:37;-22948.16;;;17.44;88.20
5296;BME280;2670;42.720;23.336;2023-05-20T08:32:04;-22954.78;;;17.67;88.31
5296;BME280;2670;42.720;23.336;2023-05-20T08:34:33;-22954.03;;;17.64;88.47
5296;BME280;2670;42.720;23.336;2023-05-20T08:36:59;-22960.81;;;17.88;86.97
5296;BME280;2670;42.720;23.336;2023-05-20T08:39:26;-22959.47;;;17.83;85.84
5296;BME280;2670;42.720;23.336;2023-05-20T08:41:53;-22963.59;;;17.98;82.81
5296;BME280;2670;42.720;23.336;2023-05-20T08:44:20;-22964.63;;;18.01;82.40
5296;BME280;2670;42.720;23.336;2023-05-20T08:46:48;-22964.78;;;18.02;83.24
5296;BME280;2670;42.720;23.336;2023-05-20T08:49:15;-22967.69;;;18.12;82.43
5296;BME280;2670;42.720;23.336;2023-05-20T08:51:44;-22970.78;;;18.23;81.39
5296;BME280;2670;42.720;23.336;2023-05-20T08:54:13;-22972.69;;;18.29;79.39
5296;BME280;2670;42.720;23.336;2023-05-20T08:56:41;-22971.81;;;18.26;84.35
5296;BME280;2670;42.720;23.336;2023-05-20T08:59:09;-22977.81;;;18.47;81.93
5296;BME280;2670;42.720;23.336;2023-05-20T09:01:41;-22979.28;;;18.52;79.66
5296;BME280;2670;42.720;23.336;2023-05-20T09:04:08;-22980.47;;;18.56;76.87
5296;BME280;2670;42.720;23.336;2023-05-20T09:06:41;-22980.03;;;18.55;76.61
5296;BME280;2670;42.720;23.336;2023-05-20T09:09:10;-22973.44;;;18.32;77.90
5296;BME280;2670;42.720;23.336;2023-05-20T09:11:38;-22976.66;;;18.43;78.81
5296;BME280;2670;42.720;23.336;2023-05-20T09:14:05;-22977.38;;;18.46;79.12
5296;BME280;2670;42.720;23.336;2023-05-20T09:16:31;-22979.88;;;18.54;78.39
5296;BME280;2670;42.720;23.336;2023-05-20T09:18:58;-22983.09;;;18.65;80.12
5296;BME280;2670;42.720;23.336;2023-05-20T09:21:25;-22985.59;;;18.74;81.89
5296;BME280;2670;42.720;23.336;2023-05-20T09:23:52;-22991.47;;;18.95;76.54
5296;BME280;2670;42.720;23.336;2023-05-20T09:26:23;-22991.75;;;18.96;75.80
5296;BME280;2670;42.720;23.336;2023-05-20T09:28:49;-22992.19;;;18.97;77.44
5296;BME280;2670;42.720;23.336;2023-05-20T09:31:16;-22991.75;;;18.96;76.48
5296;BME280;2670;42.720;23.336;2023-05-20T09:33:43;-22994.41;;;19.05;75.90
5296;BME280;2670;42.720;23.336;2023-05-20T09:36:10;-22991.91;;;18.96;77.81
5296;BME280;2670;42.720;23.336;2023-05-20T09:38:38;-22996.31;;;19.11;79.61
5296;BME280;2670;42.720;23.336;2023-05-20T09:41:09;-22998.66;;;19.20;80.32
5296;BME280;2670;42.720;23.336;2023-05-20T09:43:38;-23003.63;;;19.37;74.29
5296;BME280;2670;42.720;23.336;2023-05-20T09:46:06;-22997.91;;;19.17;76.35
5296;BME280;2670;42.720;23.336;2023-05-20T09:48:34;-23001.13;;;19.28;75.85
5296;BME280;2670;42.720;23.336;2023-05-20T09:51:02;-23000.84;;;19.27;75.81
5296;BME280;2670;42.720;23.336;2023-05-20T09:53:30;-23002.47;;;19.33;77.75
5296;BME280;2670;42.720;23.336;2023-05-20T09:55:57;-23006.72;;;19.48;73.49
5296;BME280;2670;42.720;23.336;2023-05-20T09:58:24;-23009.78;;;19.58;76.23
5296;BME280;2670;42.720;23.336;2023-05-20T10:00:52;-23013.75;;;19.72;74.01
5296;BME280;2670;42.720;23.336;2023-05-20T10:03:21;-23012.44;;;19.68;75.52
5296;BME280;2670;42.720;23.336;2023-05-20T10:06:00;-23016.22;;;19.81;75.30
5296;BME280;2670;42.720;23.336;2023-05-20T10:08:42;-23017.25;;;19.84;73.08
5296;BME280;2670;42.720;23.336;2023-05-20T10:11:20;-23022.53;;;20.03;70.26
5296;BME280;2670;42.720;23.336;2023-05-20T10:14:10;-23019.88;;;19.94;69.28
5296;BME280;2670;42.720;23.336;2023-05-20T10:19:28;-23025.16;;;20.12;68.82
5296;BME280;2670;42.720;23.336;2023-05-20T10:21:59;-23025.03;;;20.11;71.43
5296;BME280;2670;42.720;23.336;2023-05-20T10:24:30;-23024.88;;;20.11;68.86
5296;BME280;2670;42.720;23.336;2023-05-20T10:27:00;-23025.03;;;20.11;65.90
5296;BME280;2670;42.720;23.336;2023-05-20T10:29:27;-23024.13;;;20.08;65.86
5296;BME280;2670;42.720;23.336;2023-05-20T10:31:55;-23030.44;;;20.30;64.58
5296;BME280;2670;42.720;23.336;2023-05-20T10:34:22;-23031.03;;;20.32;64.71
5296;BME280;2670;42.720;23.336;2023-05-20T10:36:59;-23033.06;;;20.39;66.12
5296;BME280;2670;42.720;23.336;2023-05-20T10:39:27;-23037.75;;;20.56;66.11
5296;BME280;2670;42.720;23.336;2023-05-20T10:42:04;-23037.16;;;20.54;61.66
5296;BME280;2670;42.720;23.336;2023-05-20T10:44:40;-23031.47;;;20.34;64.93
5296;BME280;2670;42.720;23.336;2023-05-20T10:47:09;-23032.91;;;20.39;66.07
5296;BME280;2670;42.720;23.336;2023-05-20T10:49:39;-23039.22;;;20.61;64.92
5296;BME280;2670;42.720;23.336;2023-05-20T10:52:07;-23039.81;;;20.63;63.34
5296;BME280;2670;42.720;23.336;2023-05-20T10:54:35;-23042.13;;;20.71;65.26
5296;BME280;2670;42.720;23.336;2023-05-20T10:57:07;-23044.63;;;20.80;63.41
5296;BME280;2670;42.720;23.336;2023-05-20T10:59:35;-23043.03;;;20.74;66.46
5296;BME280;2670;42.720;23.336;2023-05-20T11:02:02;-23045.66;;;20.83;63.32
5296;BME280;2670;42.720;23.336;2023-05-20T11:04:31;-23045.66;;;20.83;62.88
5296;BME280;2670;42.720;23.336;2023-05-20T11:06:58;-23042.88;;;20.74;64.80
5296;BME280;2670;42.720;23.336;2023-05-20T11:09:25;-23043.59;;;20.76;66.41
5296;BME280;2670;42.720;23.336;2023-05-20T11:11:52;-23042.88;;;20.74;65.14
5296;BME280;2670;42.720;23.336;2023-05-20T11:14:20;-23040.69;;;20.66;63.19
5296;BME280;2670;42.720;23.336;2023-05-20T11:16:50;-23037.59;;;20.55;67.38
5296;BME280;2670;42.720;23.336;2023-05-20T11:19:18;-23037.31;;;20.54;65.59
5296;BME280;2670;42.720;23.336;2023-05-20T11:21:47;-23039.50;;;20.62;69.02
5296;BME280;2670;42.720;23.336;2023-05-20T11:24:21;-23041.13;;;20.68;67.08
5296;BME280;2670;42.720;23.336;2023-05-20T11:26:48;-23041.69;;;20.70;66.24
5296;BME280;2670;42.720;23.336;2023-05-20T11:29:15;-23040.53;;;20.66;65.85
5296;BME280;2670;42.720;23.336;2023-05-20T11:31:44;-23040.38;;;20.65;66.26
5296;BME280;2670;42.720;23.336;2023-05-20T11:34:12;-23043.75;;;20.77;64.99
5296;BME280;2670;42.720;23.336;2023-05-20T11:36:40;-23038.19;;;20.57;65.79
5296;BME280;2670;42.720;23.336;2023-05-20T11:39:10;-23034.81;;;20.46;68.06
5296;BME280;2670;42.720;23.336;2023-05-20T11:41:38;-23032.47;;;20.37;70.17
5296;BME280;2670;42.720;23.336;2023-05-20T11:44:09;-23036.16;;;20.50;67.59
5296;BME280;2670;42.720;23.336;2023-05-20T11:46:40;-23038.34;;;20.58;67.57
5296;BME280;2670;42.720;23.336;2023-05-20T11:49:07;-23044.78;;;20.80;65.40
5296;BME280;2670;42.720;23.336;2023-05-20T11:51:33;-23040.53;;;20.66;65.89
5296;BME280;2670;42.720;23.336;2023-05-20T11:54:01;-23035.25;;;20.47;68.52
5296;BME280;2670;42.720;23.336;2023-05-20T11:56:29;-23033.22;;;20.40;66.54
5296;BME280;2670;42.720;23.336;2023-05-20T11:58:56;-23026.91;;;20.18;66.85
5296;BME280;2670;42.720;23.336;2023-05-20T12:01:23;-23023.25;;;20.05;68.91
5296;BME280;2670;42.720;23.336;2023-05-20T12:03:52;-23025.03;;;20.11;70.00
5296;BME280;2670;42.720;23.336;2023-05-20T12:06:19;-23029.13;;;20.26;70.50
5296;BME280;2670;42.720;23.336;2023-05-20T12:08:46;-23038.47;;;20.58;66.42
5296;BME280;2670;42.720;23.336;2023-05-20T12:11:12;-23039.81;;;20.63;65.43
5296;BME280;2670;42.720;23.336;2023-05-20T12:13:41;-23035.25;;;20.47;66.37
5296;BME280;2670;42.720;23.336;2023-05-20T12:16:07;-23035.41;;;20.48;66.29
5296;BME280;2670;42.720;23.336;2023-05-20T12:18:34;-23033.34;;;20.40;66.34
5296;BME280;2670;42.720;23.336;2023-05-20T12:21:01;-23034.81;;;20.46;66.57
5296;BME280;2670;42.720;23.336;2023-05-20T12:23:28;-23037.91;;;20.56;67.60
5296;BME280;2670;42.720;23.336;2023-05-20T12:25:58;-23038.19;;;20.57;64.53
5296;BME280;2670;42.720;23.336;2023-05-20T12:28:25;-23036.28;;;20.51;64.12
5296;BME280;2670;42.720;23.336;2023-05-20T12:30:53;-23039.22;;;20.61;65.59
5296;BME280;2670;42.720;23.336;2023-05-20T12:33:20;-23039.38;;;20.61;63.96
5296;BME280;2670;42.720;23.336;2023-05-20T12:35:47;-23042.00;;;20.71;66.15
5296;BME280;2670;42.720;23.336;2023-05-20T12:38:13;-23039.06;;;20.60;67.41
5296;BME280;2670;42.720;23.336;2023-05-20T12:40:40;-23036.00;;;20.50;67.60
5296;BME280;2670;42.720;23.336;2023-05-20T12:43:07;-23031.75;;;20.35;64.02
5296;BME280;2670;42.720;23.336;2023-05-20T12:45:34;-23027.22;;;20.19;62.68
5296;BME280;2670;42.720;23.336;2023-05-20T12:48:03;-23023.69;;;20.07;62.16
5296;BME280;2670;42.720;23.336;2023-05-20T12:50:31;-23020.34;;;19.95;63.02
5296;BME280;2670;42.720;23.336;2023-05-20T12:52:58;-23015.78;;;19.79;63.56
5296;BME280;2670;42.720;23.336;2023-05-20T12:55:26;-23012.44;;;19.68;64.25
5296;BME280;2670;42.720;23.336;2023-05-20T12:57:54;-23010.53;;;19.61;65.54
5296;BME280;2670;42.720;23.336;2023-05-20T13:00:21;-23010.22;;;19.60;64.70